Time;durP1;ratioP1;P1;durP2;ratioP2;P2;SDS_P1;SDS_P2;PMS_P1;PMS_P2;Temp;Humidity;BMP_temperature;BMP_pressure;BME280_temperature;BME280_humidity;BME280_pressure;Samples;Min_cycle;Max_cycle;Signal;HPM_P1;HPM_P2
2023/04/28 00:00:03;;;;;;;10.05;5.40;;;5.30;99.90;;;;;;4860382;29;20090;-80
2023/04/28 00:02:30;;;;;;;9.52;5.30;;;5.20;99.90;;;;;;4875156;29;20058;-81
2023/04/28 00:04:57;;;;;;;9.18;5.30;;;5.10;99.90;;;;;;4859518;29;20487;-80
2023/04/28 00:07:24;;;;;;;9.20;5.35;;;5.30;99.90;;;;;;4878760;29;20042;-80
2023/04/28 00:09:50;;;;;;;10.43;5.88;;;5.30;99.90;;;;;;4859609;29;20129;-81
2023/04/28 00:12:17;;;;;;;9.68;5.63;;;5.20;99.90;;;;;;4878611;29;20577;-81
2023/04/28 00:14:44;;;;;;;9.25;5.45;;;5.20;99.90;;;;;;4878475;29;20105;-80
2023/04/28 00:17:10;;;;;;;9.70;5.38;;;5.10;99.90;;;;;;4878881;29;20045;-80
2023/04/28 00:19:37;;;;;;;9.55;5.35;;;5.20;99.90;;;;;;4876541;29;20061;-80
2023/04/28 00:22:05;;;;;;;8.95;5.55;;;5.10;99.90;;;;;;4862714;29;20049;-81
2023/04/28 00:24:32;;;;;;;8.63;5.43;;;5.10;99.90;;;;;;4863274;29;20057;-81
2023/04/28 00:27:00;;;;;;;9.63;5.57;;;5.10;99.90;;;;;;4878063;29;20082;-80
2023/04/28 00:29:28;;;;;;;12.05;6.07;;;5.10;99.90;;;;;;4878305;29;20106;-81
2023/04/28 00:31:55;;;;;;;10.13;5.05;;;5.00;99.90;;;;;;4862552;29;20049;-80
2023/04/28 00:34:22;;;;;;;8.88;5.20;;;5.00;99.90;;;;;;4862689;29;20041;-80
2023/04/28 00:36:48;;;;;;;8.40;5.13;;;5.00;99.90;;;;;;4893445;29;20049;-80
2023/04/28 00:39:17;;;;;;;10.00;5.40;;;5.00;99.90;;;;;;4893301;29;20072;-80
2023/04/28 00:41:44;;;;;;;10.60;5.20;;;4.90;99.90;;;;;;4877858;29;20086;-80
2023/04/28 00:44:10;;;;;;;13.35;5.40;;;4.90;99.90;;;;;;4862595;29;20141;-80
2023/04/28 00:46:37;;;;;;;8.70;4.78;;;4.90;99.90;;;;;;4893213;29;20049;-80
2023/04/28 00:49:04;;;;;;;11.43;5.47;;;4.90;99.90;;;;;;4893432;29;20427;-81
2023/04/28 00:51:32;;;;;;;11.15;5.50;;;4.90;99.90;;;;;;4877906;29;20136;-80
2023/04/28 00:53:59;;;;;;;10.05;5.28;;;4.90;99.90;;;;;;4858971;29;20544;-81
2023/04/28 00:56:27;;;;;;;9.43;5.10;;;4.80;99.90;;;;;;4859137;29;20046;-81
2023/04/28 00:58:54;;;;;;;9.52;5.15;;;4.80;99.90;;;;;;4859244;29;20050;-80
2023/04/28 01:01:21;;;;;;;11.35;5.65;;;4.90;99.90;;;;;;4847100;29;20038;-80
2023/04/28 01:03:48;;;;;;;11.48;6.18;;;4.90;99.90;;;;;;4877043;29;20065;-80
2023/04/28 01:06:15;;;;;;;13.75;5.78;;;4.90;99.90;;;;;;4877424;29;20041;-80
2023/04/28 01:08:46;;;;;;;11.05;5.30;;;4.90;99.90;;;;;;4861766;29;20045;-80
2023/04/28 01:11:13;;;;;;;9.07;5.65;;;4.90;99.90;;;;;;4892786;29;20049;-80
2023/04/28 01:13:40;;;;;;;12.57;5.88;;;4.90;99.90;;;;;;4892601;29;20559;-80
2023/04/28 01:16:07;;;;;;;9.65;5.55;;;4.90;99.90;;;;;;4876310;29;20042;-80
2023/04/28 01:18:33;;;;;;;10.57;5.72;;;5.00;99.90;;;;;;4877466;29;20058;-80
2023/04/28 01:21:00;;;;;;;10.75;5.75;;;4.90;99.90;;;;;;4876748;29;20479;-80
2023/04/28 01:23:27;;;;;;;11.18;5.72;;;4.90;99.90;;;;;;4876871;29;20084;-80
2023/04/28 01:25:53;;;;;;;11.55;5.38;;;5.00;99.90;;;;;;4876694;29;20106;-80
2023/04/28 01:28:20;;;;;;;11.00;6.03;;;5.00;99.90;;;;;;4861995;29;20077;-80
2023/04/28 01:30:47;;;;;;;10.15;5.95;;;5.00;99.90;;;;;;4876913;29;20104;-80
2023/04/28 01:33:13;;;;;;;10.70;6.20;;;5.10;99.90;;;;;;4861842;29;20487;-80
2023/04/28 01:35:40;;;;;;;10.23;5.57;;;5.00;99.90;;;;;;4877117;29;20038;-80
2023/04/28 01:38:07;;;;;;;14.40;6.38;;;5.00;99.90;;;;;;4861809;29;20064;-80
2023/04/28 01:40:34;;;;;;;11.27;6.65;;;5.00;99.90;;;;;;4892420;29;20128;-80
2023/04/28 01:43:00;;;;;;;13.77;7.13;;;5.00;99.90;;;;;;4876648;29;20129;-80
2023/04/28 01:45:27;;;;;;;13.68;6.60;;;5.00;99.90;;;;;;4873607;29;20042;-80
2023/04/28 01:47:54;;;;;;;11.20;6.65;;;5.00;99.90;;;;;;4871570;29;20048;-80
2023/04/28 01:50:20;;;;;;;15.60;7.07;;;5.00;99.90;;;;;;4861554;29;20038;-81
2023/04/28 01:52:47;;;;;;;12.20;7.10;;;5.00;99.90;;;;;;4876496;29;20077;-80
2023/04/28 01:55:14;;;;;;;13.13;7.10;;;5.00;99.90;;;;;;4873463;29;20038;-80
2023/04/28 01:57:41;;;;;;;13.77;7.57;;;5.00;99.90;;;;;;4858710;29;20042;-81
2023/04/28 02:00:08;;;;;;;14.43;7.20;;;5.00;99.90;;;;;;4858382;29;20054;-81
2023/04/28 02:02:35;;;;;;;14.23;7.60;;;5.00;99.90;;;;;;4843248;29;20052;-81
2023/04/28 02:05:02;;;;;;;13.90;7.80;;;5.10;99.90;;;;;;4859120;29;20141;-80
2023/04/28 02:07:29;;;;;;;12.90;7.18;;;5.00;99.90;;;;;;4876199;29;20077;-81
2023/04/28 02:09:55;;;;;;;14.43;7.63;;;5.10;99.90;;;;;;4845962;29;20057;-80
2023/04/28 02:12:22;;;;;;;14.73;7.78;;;5.10;99.90;;;;;;4861694;29;20163;-80
2023/04/28 02:14:50;;;;;;;15.32;7.78;;;5.10;99.90;;;;;;4861301;29;20052;-80
2023/04/28 02:17:16;;;;;;;14.27;7.38;;;5.10;99.90;;;;;;4876415;29;20053;-81
2023/04/28 02:19:43;;;;;;;13.95;7.55;;;5.10;99.90;;;;;;4876490;29;20468;-80
2023/04/28 02:22:10;;;;;;;22.92;9.45;;;5.10;99.90;;;;;;4876086;29;20049;-81
2023/04/28 02:24:37;;;;;;;14.52;8.05;;;5.10;99.90;;;;;;4876339;29;20514;-81
2023/04/28 02:27:04;;;;;;;15.40;8.55;;;5.10;99.90;;;;;;4845584;29;20495;-80
2023/04/28 02:29:31;;;;;;;15.18;8.27;;;5.00;99.90;;;;;;4876545;29;20129;-80
2023/04/28 02:31:58;;;;;;;15.68;8.93;;;5.00;99.90;;;;;;4847812;29;20132;-80
2023/04/28 02:34:24;;;;;;;14.80;8.50;;;5.00;99.90;;;;;;4859235;29;20042;-80
2023/04/28 02:36:51;;;;;;;18.60;8.90;;;5.00;99.90;;;;;;4876367;29;20052;-81
2023/04/28 02:39:20;;;;;;;15.70;8.23;;;5.00;99.90;;;;;;4861144;29;20064;-80
2023/04/28 02:41:47;;;;;;;17.30;8.55;;;5.10;99.90;;;;;;4861271;29;20041;-81
2023/04/28 02:44:14;;;;;;;15.98;9.02;;;5.00;99.90;;;;;;4857433;29;20087;-80
2023/04/28 02:46:41;;;;;;;18.35;8.98;;;5.00;99.90;;;;;;4872747;29;20042;-80
2023/04/28 02:49:07;;;;;;;18.02;9.35;;;5.00;99.90;;;;;;4842484;29;20093;-80
2023/04/28 02:51:34;;;;;;;17.30;9.23;;;5.00;99.90;;;;;;4857755;29;20461;-80
2023/04/28 02:54:01;;;;;;;16.40;8.88;;;5.10;99.90;;;;;;4842259;29;20098;-80
2023/04/28 02:56:28;;;;;;;15.75;9.05;;;5.00;99.90;;;;;;4861411;29;20407;-80
2023/04/28 02:58:55;;;;;;;17.10;9.32;;;5.00;99.90;;;;;;4875790;29;20136;-79
2023/04/28 03:01:22;;;;;;;17.60;9.40;;;5.00;99.90;;;;;;4876077;29;20136;-80
2023/04/28 03:03:49;;;;;;;20.17;9.38;;;5.00;99.90;;;;;;4875953;29;20049;-80
2023/04/28 03:06:15;;;;;;;21.27;9.68;;;5.00;99.90;;;;;;4875608;29;20137;-80
2023/04/28 03:08:42;;;;;;;17.70;9.70;;;5.00;99.90;;;;;;4860506;29;20144;-80
2023/04/28 03:11:09;;;;;;;19.20;10.15;;;5.00;99.90;;;;;;4860492;29;20679;-80
2023/04/28 03:13:36;;;;;;;16.63;9.32;;;5.10;99.90;;;;;;4861193;29;20080;-80
2023/04/28 03:16:03;;;;;;;22.75;10.07;;;5.00;99.90;;;;;;4875618;29;20081;-80
2023/04/28 03:18:30;;;;;;;18.42;9.68;;;5.10;99.90;;;;;;4842260;29;20050;-80
2023/04/28 03:20:56;;;;;;;18.30;9.95;;;5.10;99.90;;;;;;4857523;29;20507;-79
2023/04/28 03:23:23;;;;;;;17.42;9.73;;;5.10;99.90;;;;;;4842140;29;20049;-81
2023/04/28 03:25:50;;;;;;;17.60;10.02;;;5.00;99.90;;;;;;4857458;29;20106;-81
2023/04/28 03:28:16;;;;;;;23.33;9.85;;;5.10;99.90;;;;;;4860015;29;20042;-80
2023/04/28 03:30:43;;;;;;;22.75;10.43;;;5.10;99.90;;;;;;4860403;29;20039;-80
2023/04/28 03:33:10;;;;;;;17.48;9.75;;;5.20;99.90;;;;;;4875549;29;20459;-79
2023/04/28 03:35:36;;;;;;;19.83;10.60;;;5.10;99.90;;;;;;4860693;29;20132;-81
2023/04/28 03:38:03;;;;;;;20.05;9.77;;;5.10;99.90;;;;;;4858400;29;20046;-80
2023/04/28 03:40:30;;;;;;;19.17;10.60;;;5.10;99.90;;;;;;4863601;29;20072;-80
2023/04/28 03:42:58;;;;;;;17.35;9.80;;;5.10;99.90;;;;;;4879089;29;20052;-81
2023/04/28 03:45:24;;;;;;;20.67;10.15;;;5.10;99.90;;;;;;4863258;29;20502;-80
2023/04/28 03:47:51;;;;;;;16.48;9.90;;;5.10;99.90;;;;;;4861061;29;20042;-80
2023/04/28 03:50:18;;;;;;;18.35;9.65;;;5.20;99.90;;;;;;4860791;29;20141;-80
2023/04/28 03:52:45;;;;;;;18.23;10.18;;;5.10;99.90;;;;;;4861192;29;20488;-80
2023/04/28 03:55:12;;;;;;;18.77;10.23;;;5.10;99.90;;;;;;4860837;29;20038;-80
2023/04/28 03:57:39;;;;;;;19.10;9.65;;;5.00;99.90;;;;;;4860240;29;20070;-80
2023/04/28 04:00:06;;;;;;;17.80;9.00;;;5.10;99.90;;;;;;4859540;29;20042;-80
2023/04/28 04:02:33;;;;;;;24.02;9.20;;;5.00;99.90;;;;;;4859772;29;20045;-80
2023/04/28 04:05:00;;;;;;;16.80;8.60;;;5.00;99.90;;;;;;4860022;29;20053;-80
2023/04/28 04:07:26;;;;;;;15.10;8.25;;;4.90;99.90;;;;;;4859567;29;20038;-79
2023/04/28 04:09:53;;;;;;;17.08;9.50;;;5.00;99.90;;;;;;4844689;29;20144;-80
2023/04/28 04:12:20;;;;;;;19.70;9.60;;;5.00;99.90;;;;;;4859398;29;20045;-80
2023/04/28 04:14:46;;;;;;;18.83;9.07;;;4.90;99.90;;;;;;4844866;29;20049;-80
2023/04/28 04:17:13;;;;;;;16.70;8.95;;;4.90;99.90;;;;;;4859468;29;20045;-80
2023/04/28 04:19:40;;;;;;;16.33;8.45;;;5.00;99.90;;;;;;4860010;29;20134;-80
2023/04/28 04:22:06;;;;;;;20.08;9.32;;;4.90;99.90;;;;;;4844973;29;20046;-80
2023/04/28 04:24:33;;;;;;;15.65;8.35;;;4.90;99.90;;;;;;4859679;29;20050;-80
2023/04/28 04:27:00;;;;;;;14.38;8.68;;;5.00;99.90;;;;;;4859643;29;20555;-80
2023/04/28 04:29:26;;;;;;;19.70;9.60;;;4.90;99.90;;;;;;4862960;29;20071;-80
2023/04/28 04:31:53;;;;;;;14.15;7.88;;;5.00;99.90;;;;;;4863127;29;20046;-80
2023/04/28 04:34:20;;;;;;;15.63;8.15;;;5.00;99.90;;;;;;4862375;29;20050;-80
2023/04/28 04:36:46;;;;;;;16.35;8.48;;;5.00;99.90;;;;;;4878348;29;20049;-80
2023/04/28 04:39:13;;;;;;;17.92;8.73;;;5.00;99.90;;;;;;4877415;29;20121;-79
2023/04/28 04:41:41;;;;;;;14.65;7.90;;;5.00;99.90;;;;;;4877544;29;20455;-79
2023/04/28 04:44:07;;;;;;;17.02;8.52;;;5.00;99.90;;;;;;4848296;29;20045;-80
2023/04/28 04:46:34;;;;;;;15.73;7.60;;;5.10;99.90;;;;;;4862207;29;20048;-80
2023/04/28 04:49:01;;;;;;;14.40;8.32;;;5.00;99.90;;;;;;4862193;29;20041;-80
2023/04/28 04:51:27;;;;;;;15.13;7.93;;;5.10;99.90;;;;;;4862757;29;20041;-81
2023/04/28 04:53:54;;;;;;;13.32;7.78;;;5.10;99.90;;;;;;4877664;29;20069;-80
2023/04/28 04:56:21;;;;;;;15.38;8.27;;;5.30;99.90;;;;;;4862344;29;20049;-80
2023/04/28 04:58:51;;;;;;;14.05;7.78;;;5.10;99.90;;;;;;4878040;29;20088;-80
2023/04/28 05:01:17;;;;;;;15.73;9.00;;;5.20;99.90;;;;;;4876923;29;20128;-80
2023/04/28 05:03:44;;;;;;;15.60;8.43;;;5.20;99.90;;;;;;4862134;29;20472;-80
2023/04/28 05:06:11;;;;;;;17.88;8.55;;;5.20;99.90;;;;;;4862276;29;20065;-80
2023/04/28 05:08:37;;;;;;;14.82;8.25;;;5.20;99.90;;;;;;4876836;29;20077;-80
2023/04/28 05:11:04;;;;;;;13.60;8.05;;;5.20;99.90;;;;;;4877327;29;20097;-80
2023/04/28 05:13:30;;;;;;;17.48;8.10;;;5.30;99.90;;;;;;4861537;29;20085;-80
2023/04/28 05:15:57;;;;;;;13.02;8.07;;;5.40;99.90;;;;;;4862120;29;20511;-80
2023/04/28 05:18:24;;;;;;;13.50;7.72;;;5.30;99.90;;;;;;4861709;29;20046;-80
2023/04/28 05:20:51;;;;;;;15.15;7.88;;;5.30;99.90;;;;;;4876866;29;20133;-80
2023/04/28 05:23:17;;;;;;;15.57;8.40;;;5.30;99.90;;;;;;4846342;29;20053;-80
2023/04/28 05:25:44;;;;;;;17.88;7.65;;;5.30;99.90;;;;;;4877050;29;20053;-80
2023/04/28 05:28:11;;;;;;;14.30;7.75;;;5.40;99.90;;;;;;4877396;29;20073;-80
2023/04/28 05:30:38;;;;;;;13.93;7.75;;;5.30;99.90;;;;;;4892171;29;20049;-81
2023/04/28 05:33:04;;;;;;;12.75;7.70;;;5.30;99.90;;;;;;4861701;29;20052;-80
2023/04/28 05:35:31;;;;;;;13.95;7.30;;;5.30;99.90;;;;;;4861460;29;20574;-80
2023/04/28 05:37:58;;;;;;;16.13;8.00;;;5.40;99.90;;;;;;4876889;29;20099;-80
2023/04/28 05:40:25;;;;;;;13.85;7.50;;;5.30;99.90;;;;;;4876554;29;20049;-80
2023/04/28 05:42:52;;;;;;;16.92;7.88;;;5.40;99.90;;;;;;4873703;29;20050;-80
2023/04/28 05:45:19;;;;;;;14.32;7.57;;;5.40;99.90;;;;;;4870148;29;20529;-80
2023/04/28 05:47:46;;;;;;;13.90;7.47;;;5.40;99.90;;;;;;4861553;29;20406;-80
2023/04/28 05:50:12;;;;;;;13.65;7.95;;;5.40;99.90;;;;;;4861539;29;20052;-80
2023/04/28 05:52:39;;;;;;;15.27;7.78;;;5.50;99.90;;;;;;4860922;29;20086;-80
2023/04/28 05:55:07;;;;;;;12.85;7.53;;;5.50;99.90;;;;;;4876878;29;20052;-80
2023/04/28 05:57:34;;;;;;;15.18;7.95;;;5.60;99.90;;;;;;4876532;29;20479;-80
2023/04/28 06:00:01;;;;;;;15.85;8.05;;;5.60;99.90;;;;;;4861512;29;20072;-80
2023/04/28 06:02:27;;;;;;;15.18;7.88;;;5.60;99.90;;;;;;4860899;29;20049;-80
2023/04/28 06:04:54;;;;;;;12.10;7.45;;;5.70;99.90;;;;;;4873135;29;20080;-80
2023/04/28 06:07:21;;;;;;;17.80;7.55;;;5.70;99.90;;;;;;4857836;29;20046;-79
2023/04/28 06:09:48;;;;;;;19.40;8.13;;;5.80;99.90;;;;;;4858082;29;20068;-80
2023/04/28 06:12:15;;;;;;;17.25;8.05;;;5.90;99.90;;;;;;4858664;29;20074;-81
2023/04/28 06:14:42;;;;;;;13.73;7.88;;;6.00;99.90;;;;;;4853541;29;20046;-80
2023/04/28 06:17:08;;;;;;;17.13;8.77;;;6.00;99.90;;;;;;4843108;29;20046;-81
2023/04/28 06:19:35;;;;;;;14.70;7.40;;;6.10;99.90;;;;;;4857891;29;20049;-81
2023/04/28 06:22:02;;;;;;;15.25;7.65;;;6.20;99.90;;;;;;4843116;29;20499;-80
2023/04/28 06:24:28;;;;;;;15.70;7.38;;;6.20;99.90;;;;;;4858245;29;20041;-79
2023/04/28 06:26:56;;;;;;;15.20;7.47;;;6.30;99.90;;;;;;4858616;29;20148;-81
2023/04/28 06:29:23;;;;;;;13.52;7.10;;;6.30;99.90;;;;;;4873757;29;20110;-81
2023/04/28 06:31:51;;;;;;;14.95;7.82;;;6.30;99.90;;;;;;4858259;29;20098;-81
2023/04/28 06:34:17;;;;;;;14.10;7.55;;;6.40;99.90;;;;;;4843057;29;20042;-81
2023/04/28 06:36:44;;;;;;;15.23;7.18;;;6.40;99.90;;;;;;4846806;29;20136;-81
2023/04/28 06:39:11;;;;;;;13.27;7.10;;;6.50;99.90;;;;;;4864314;29;20132;-81
2023/04/28 06:41:38;;;;;;;13.23;7.15;;;6.60;99.90;;;;;;4871761;29;20418;-81
2023/04/28 06:44:05;;;;;;;15.48;7.57;;;6.60;99.90;;;;;;4889030;29;20048;-80
2023/04/28 06:46:31;;;;;;;12.93;7.55;;;6.70;99.90;;;;;;4870776;29;20045;-81
2023/04/28 06:48:58;;;;;;;12.60;7.38;;;6.70;99.90;;;;;;4864007;29;20128;-80
2023/04/28 06:51:25;;;;;;;14.73;7.68;;;6.70;99.90;;;;;;4885118;29;20049;-81
2023/04/28 06:53:52;;;;;;;13.65;7.47;;;6.80;99.90;;;;;;4896154;29;20060;-81
2023/04/28 06:56:19;;;;;;;11.60;7.00;;;6.90;99.90;;;;;;4850188;29;20049;-81
2023/04/28 06:58:46;;;;;;;10.77;6.63;;;7.00;99.90;;;;;;4860606;29;20058;-81
2023/04/28 07:01:12;;;;;;;13.52;6.95;;;7.00;99.90;;;;;;4862631;29;20061;-82
2023/04/28 07:03:39;;;;;;;15.82;6.65;;;7.10;99.90;;;;;;4842801;29;20045;-81
2023/04/28 07:06:06;;;;;;;12.50;7.40;;;7.10;99.90;;;;;;4867962;29;20049;-82
2023/04/28 07:08:33;;;;;;;12.85;6.68;;;7.10;99.90;;;;;;4872017;29;20037;-81
2023/04/28 07:11:03;;;;;;;12.30;6.90;;;7.20;99.90;;;;;;4894587;29;20041;-80
2023/04/28 07:13:30;;;;;;;12.32;6.88;;;7.20;99.90;;;;;;4865931;29;20521;-80
2023/04/28 07:15:57;;;;;;;16.33;7.57;;;7.30;99.90;;;;;;4891470;29;20053;-81
2023/04/28 07:18:23;;;;;;;14.10;7.20;;;7.30;99.90;;;;;;4879643;29;20080;-81
2023/04/28 07:20:50;;;;;;;13.35;7.13;;;7.50;99.90;;;;;;4878868;29;20049;-81
2023/04/28 07:23:17;;;;;;;13.65;7.18;;;7.50;99.90;;;;;;4880027;29;20057;-82
2023/04/28 07:25:43;;;;;;;11.90;6.85;;;7.50;99.90;;;;;;4879038;29;20068;-81
2023/04/28 07:28:11;;;;;;;13.95;6.78;;;7.50;99.90;;;;;;4848770;29;20092;-82
2023/04/28 07:30:37;;;;;;;13.23;6.78;;;7.50;99.90;;;;;;4848895;29;20129;-81
2023/04/28 07:33:04;;;;;;;11.23;6.65;;;7.60;99.90;;;;;;4879318;29;20574;-81
2023/04/28 07:35:31;;;;;;;13.48;6.75;;;7.60;99.90;;;;;;4879226;29;20045;-81
2023/04/28 07:37:57;;;;;;;11.23;7.00;;;7.50;99.90;;;;;;4847395;29;20475;-81
2023/04/28 07:40:24;;;;;;;13.63;7.18;;;7.50;99.90;;;;;;4846116;29;20041;-81
2023/04/28 07:42:51;;;;;;;12.65;6.63;;;7.60;99.90;;;;;;4860653;29;20045;-82
2023/04/28 07:45:18;;;;;;;14.43;6.57;;;7.60;99.90;;;;;;4845665;29;20507;-81
2023/04/28 07:47:45;;;;;;;12.98;6.85;;;7.60;99.90;;;;;;4855922;29;20045;-81
2023/04/28 07:50:11;;;;;;;12.30;6.35;;;7.70;99.90;;;;;;4878747;29;20418;-81
2023/04/28 07:52:38;;;;;;;11.23;6.78;;;7.90;99.90;;;;;;4878302;29;20754;-81
2023/04/28 07:55:05;;;;;;;13.75;6.70;;;7.80;99.90;;;;;;4874413;29;20124;-81
2023/04/28 07:57:32;;;;;;;11.85;6.68;;;7.90;99.90;;;;;;4889922;29;20056;-81
2023/04/28 07:59:59;;;;;;;12.32;6.82;;;8.00;99.90;;;;;;4862774;29;20049;-81
2023/04/28 08:02:26;;;;;;;10.40;6.70;;;8.10;99.90;;;;;;4868381;29;20045;-82
2023/04/28 08:04:52;;;;;;;10.80;6.75;;;8.10;99.90;;;;;;4883004;29;20534;-82
2023/04/28 08:07:19;;;;;;;13.20;6.65;;;8.10;99.90;;;;;;4882265;29;20045;-82
2023/04/28 08:09:47;;;;;;;12.88;6.78;;;8.10;99.90;;;;;;4880816;29;20133;-81
2023/04/28 08:12:14;;;;;;;12.98;6.45;;;8.10;99.90;;;;;;4864048;29;20109;-82
2023/04/28 08:14:41;;;;;;;10.90;6.22;;;8.10;99.90;;;;;;4887707;29;20041;-81
2023/04/28 08:17:08;;;;;;;12.55;7.15;;;8.20;99.90;;;;;;4863694;29;20057;-81
2023/04/28 08:19:34;;;;;;;10.38;6.18;;;8.20;99.90;;;;;;4878887;29;20053;-81
2023/04/28 08:22:04;;;;;;;11.00;6.53;;;8.30;99.90;;;;;;4894918;29;20521;-81
2023/04/28 08:24:33;;;;;;;11.65;6.60;;;8.30;99.90;;;;;;4895546;29;20054;-82
2023/04/28 08:27:02;;;;;;;11.75;6.70;;;8.40;99.90;;;;;;4862956;29;20590;-81
2023/04/28 08:29:32;;;;;;;12.38;7.40;;;8.40;99.90;;;;;;4848102;29;20053;-81
2023/04/28 08:32:00;;;;;;;13.15;5.95;;;8.50;99.90;;;;;;4893370;29;20510;-82
2023/04/28 08:34:27;;;;;;;12.70;7.00;;;8.70;99.90;;;;;;4863224;29;20045;-81
2023/04/28 08:36:54;;;;;;;10.20;5.85;;;8.70;99.90;;;;;;4877556;29;20065;-82
2023/04/28 08:39:22;;;;;;;12.30;6.95;;;8.90;99.90;;;;;;4878473;29;20132;-81
2023/04/28 08:41:49;;;;;;;12.43;6.30;;;9.00;99.90;;;;;;4878243;29;20193;-81
2023/04/28 08:44:16;;;;;;;14.38;6.90;;;9.00;99.90;;;;;;4859679;29;20049;-81
2023/04/28 08:46:44;;;;;;;10.82;6.05;;;9.00;99.90;;;;;;4859327;29;20050;-81
2023/04/28 08:49:15;;;;;;;12.80;6.38;;;9.10;99.90;;;;;;4875018;29;20457;-81
2023/04/28 08:51:50;;;;;;;10.57;6.43;;;9.20;99.90;;;;;;4893035;29;20045;-81
2023/04/28 08:54:18;;;;;;;10.63;6.50;;;9.30;99.90;;;;;;4862675;29;20094;-81
2023/04/28 08:56:45;;;;;;;10.52;6.70;;;9.40;99.90;;;;;;4859439;29;20057;-81
2023/04/28 08:59:12;;;;;;;11.88;6.63;;;9.50;99.90;;;;;;4844280;29;20046;-81
2023/04/28 09:01:39;;;;;;;12.88;6.85;;;9.60;99.90;;;;;;4874485;29;20455;-81
2023/04/28 09:04:06;;;;;;;10.45;6.13;;;9.70;99.90;;;;;;4846407;29;20050;-81
2023/04/28 09:06:35;;;;;;;10.80;6.43;;;9.80;99.90;;;;;;4877198;29;20545;-81
2023/04/28 09:09:24;;;;;;;9.23;5.65;;;9.80;99.90;;;;;;4892442;29;20086;-81
2023/04/28 09:11:59;;;;;;;10.35;6.18;;;9.80;99.90;;;;;;4892680;29;20110;-81
2023/04/28 09:14:37;;;;;;;10.60;5.90;;;9.80;99.90;;;;;;4893002;29;20049;-81
2023/04/28 09:17:15;;;;;;;15.35;6.55;;;9.80;99.90;;;;;;4879444;29;20521;-81
2023/04/28 09:19:42;;;;;;;10.85;6.28;;;9.80;99.90;;;;;;4864165;29;20438;-82
2023/04/28 09:22:09;;;;;;;11.57;5.85;;;9.70;99.90;;;;;;4862565;29;20055;-82
2023/04/28 09:24:41;;;;;;;12.05;6.30;;;9.70;99.90;;;;;;4877140;29;20089;-81
2023/04/28 09:27:10;;;;;;;11.20;6.22;;;9.80;99.90;;;;;;4877724;29;20176;-81
2023/04/28 09:29:38;;;;;;;12.10;6.18;;;9.80;99.90;;;;;;4892854;29;20037;-82
2023/04/28 09:32:21;;;;;;;9.55;6.50;;;9.90;99.90;;;;;;4861893;29;20041;-81
2023/04/28 09:34:55;;;;;;;9.15;6.03;;;9.90;99.90;;;;;;4879405;29;20078;-81
2023/04/28 09:37:26;;;;;;;11.57;6.40;;;10.00;99.90;;;;;;4883221;29;20518;-82
2023/04/28 09:39:53;;;;;;;10.70;6.93;;;10.00;99.90;;;;;;4861928;29;20046;-82
2023/04/28 09:42:37;;;;;;;13.23;6.88;;;10.00;99.90;;;;;;4892166;29;20053;-82
2023/04/28 09:45:12;;;;;;;12.07;6.35;;;9.90;99.90;;;;;;4862212;29;20503;-81
2023/04/28 09:47:40;;;;;;;10.93;6.68;;;9.90;99.90;;;;;;4876080;29;20045;-82
2023/04/28 09:50:10;;;;;;;10.25;6.82;;;10.00;99.90;;;;;;4876114;29;20037;-81
2023/04/28 09:52:37;;;;;;;11.02;6.72;;;10.00;99.90;;;;;;4861963;29;20453;-81
2023/04/28 09:55:07;;;;;;;12.52;7.40;;;10.20;99.90;;;;;;4892021;29;20045;-81
2023/04/28 09:57:35;;;;;;;15.70;6.68;;;10.30;99.90;;;;;;4876061;29;20105;-81
2023/04/28 10:00:05;;;;;;;15.07;6.95;;;10.40;99.90;;;;;;4861291;29;20554;-81
2023/04/28 10:02:34;;;;;;;12.50;6.90;;;10.60;99.90;;;;;;4861602;29;20056;-81
2023/04/28 10:05:02;;;;;;;9.45;6.47;;;10.70;99.90;;;;;;4861010;29;20053;-81
2023/04/28 10:07:33;;;;;;;12.30;6.70;;;10.80;99.90;;;;;;4873615;29;20106;-81
2023/04/28 10:10:00;;;;;;;14.70;7.03;;;10.90;99.90;;;;;;4873078;29;20101;-81
2023/04/28 10:12:27;;;;;;;14.93;7.68;;;11.30;99.90;;;;;;4857945;29;20046;-81
2023/04/28 10:14:55;;;;;;;12.07;6.97;;;11.60;99.90;;;;;;4842697;29;20034;-82
2023/04/28 10:17:24;;;;;;;10.90;6.13;;;12.00;99.90;;;;;;4861862;29;20057;-81
2023/04/28 10:19:53;;;;;;;12.20;6.35;;;12.30;99.90;;;;;;4891416;29;20510;-81
2023/04/28 10:22:47;;;;;;;10.60;6.28;;;12.40;99.90;;;;;;4876253;29;20097;-81
2023/04/28 10:25:32;;;;;;;11.68;7.15;;;12.80;99.90;;;;;;4876259;29;20045;-81
2023/04/28 10:28:03;;;;;;;11.93;5.82;;;12.90;99.90;;;;;;4876237;29;20511;-81
2023/04/28 10:30:30;;;;;;;11.05;6.53;;;13.00;99.90;;;;;;4861976;29;20411;-81
2023/04/28 10:33:12;;;;;;;12.95;6.90;;;13.10;99.90;;;;;;4860963;29;20048;-82
2023/04/28 10:35:41;;;;;;;10.60;6.57;;;13.10;99.90;;;;;;4879389;29;20046;-81
2023/04/28 10:38:13;;;;;;;13.75;6.97;;;13.10;99.90;;;;;;4880094;29;20068;-81
2023/04/28 10:40:41;;;;;;;11.00;6.43;;;13.20;99.90;;;;;;4881455;29;20124;-81
2023/04/28 10:43:12;;;;;;;10.27;6.82;;;13.40;99.90;;;;;;4897288;29;20388;-81
2023/04/28 10:45:48;;;;;;;12.05;6.72;;;13.50;99.90;;;;;;4880110;29;20053;-81
2023/04/28 10:48:15;;;;;;;13.50;6.65;;;13.50;99.90;;;;;;4900037;29;20459;-82
2023/04/28 10:51:11;;;;;;;11.88;6.57;;;13.60;99.90;;;;;;4868649;29;20487;-82
2023/04/28 10:53:44;;;;;;;11.57;6.75;;;13.60;99.90;;;;;;4892706;29;20483;-81
2023/04/28 10:56:20;;;;;;;11.18;6.88;;;13.70;99.90;;;;;;4892115;29;20109;-82
2023/04/28 10:58:49;;;;;;;16.70;7.00;;;13.60;99.90;;;;;;4889265;29;20057;-82
2023/04/28 11:01:30;;;;;;;10.93;6.35;;;13.60;99.90;;;;;;4850159;29;20215;-82
2023/04/28 11:03:59;;;;;;;11.40;6.38;;;13.50;99.90;;;;;;4879232;29;20041;-82
2023/04/28 11:06:27;;;;;;;19.38;7.57;;;13.40;99.90;;;;;;4879694;29;20049;-81
2023/04/28 11:08:56;;;;;;;11.95;6.43;;;13.40;99.90;;;;;;4882453;29;20189;-82
2023/04/28 11:11:32;;;;;;;9.93;6.97;;;13.30;99.90;;;;;;4889633;29;20085;-82
2023/04/28 11:14:17;;;;;;;12.93;6.90;;;13.20;99.90;;;;;;4878990;29;20045;-81
2023/04/28 11:17:01;;;;;;;11.00;6.78;;;13.10;99.90;;;;;;4904866;29;20041;-81
2023/04/28 11:19:40;;;;;;;13.07;6.55;;;13.00;99.90;;;;;;4899433;29;20045;-81
2023/04/28 11:22:17;;;;;;;11.93;6.88;;;13.10;99.90;;;;;;4906401;29;20044;-81
2023/04/28 11:25:01;;;;;;;11.70;6.70;;;13.10;99.90;;;;;;4888547;29;20117;-81
2023/04/28 11:27:30;;;;;;;11.48;6.70;;;13.20;99.90;;;;;;4904707;29;20041;-82
2023/04/28 11:29:58;;;;;;;9.63;6.53;;;13.20;99.90;;;;;;4883114;29;20513;-82
2023/04/28 11:32:30;;;;;;;12.23;6.88;;;13.20;99.90;;;;;;4902820;29;20101;-82
2023/04/28 11:34:57;;;;;;;14.50;6.30;;;13.10;99.90;;;;;;4900213;29;20044;-81
2023/04/28 11:37:24;;;;;;;12.23;6.93;;;13.00;99.90;;;;;;4901223;29;20442;-81
2023/04/28 11:39:51;;;;;;;12.40;7.10;;;12.90;99.90;;;;;;4909346;29;20128;-81
2023/04/28 11:42:18;;;;;;;10.52;6.75;;;12.70;99.90;;;;;;4865389;29;20049;-82
2023/04/28 11:44:52;;;;;;;15.35;7.75;;;12.60;99.90;;;;;;4867080;29;20119;-82
2023/04/28 11:47:29;;;;;;;10.40;7.22;;;12.40;99.90;;;;;;4895470;29;20038;-82
2023/04/28 11:49:56;;;;;;;13.93;7.32;;;12.30;99.90;;;;;;4873833;29;20124;-81
2023/04/28 11:52:24;;;;;;;14.93;7.50;;;12.30;99.90;;;;;;4907814;29;20045;-82
2023/04/28 11:54:55;;;;;;;13.35;7.15;;;12.30;99.90;;;;;;4870839;29;20582;-81
2023/04/28 11:57:22;;;;;;;12.90;7.32;;;12.20;99.90;;;;;;4898371;29;20049;-82
2023/04/28 11:59:49;;;;;;;14.73;7.78;;;12.30;99.90;;;;;;4882019;29;20521;-81
2023/04/28 12:02:25;;;;;;;15.00;7.45;;;12.30;99.90;;;;;;4885020;29;20367;-82
2023/04/28 12:04:51;;;;;;;;;;;12.30;99.90;;;;;;4889538;29;20101;-81
2023/04/28 12:07:18;;;;;;;15.98;7.93;;;12.30;99.90;;;;;;4897710;29;20308;-81
2023/04/28 12:10:05;;;;;;;14.50;7.82;;;12.40;99.90;;;;;;4894476;29;20057;-81
2023/04/28 12:12:32;;;;;;;16.08;8.15;;;12.50;99.90;;;;;;4878904;29;20045;-81
2023/04/28 12:15:03;;;;;;;18.08;7.70;;;12.50;99.90;;;;;;4863459;29;20045;-81
2023/04/28 12:17:36;;;;;;;10.82;7.22;;;12.50;99.90;;;;;;4877794;29;20045;-82
2023/04/28 12:20:05;;;;;;;13.82;8.07;;;12.40;99.90;;;;;;4893758;29;20057;-81
2023/04/28 12:22:46;;;;;;;10.88;7.85;;;12.50;99.90;;;;;;4881422;29;20045;-82
2023/04/28 12:25:18;;;;;;;13.73;8.35;;;12.50;99.90;;;;;;4878249;29;20049;-82
2023/04/28 12:28:02;;;;;;;13.63;8.65;;;12.60;99.90;;;;;;4891584;29;20056;-82
2023/04/28 12:30:31;;;;;;;14.52;8.93;;;12.70;99.90;;;;;;4844978;29;20110;-82
2023/04/28 12:32:57;;;;;;;11.13;7.53;;;12.70;99.90;;;;;;4869361;29;20046;-82
2023/04/28 12:35:26;;;;;;;14.00;7.82;;;12.80;99.90;;;;;;4863130;29;20491;-82
2023/04/28 12:37:54;;;;;;;12.10;7.45;;;12.80;99.90;;;;;;4893471;29;20041;-82
2023/04/28 12:40:22;;;;;;;12.13;7.28;;;12.80;99.90;;;;;;4877597;29;20128;-82
2023/04/28 12:42:49;;;;;;;12.23;7.45;;;12.90;99.90;;;;;;4859896;29;20053;-81
2023/04/28 12:45:16;;;;;;;11.07;7.35;;;12.80;99.90;;;;;;4859307;29;20046;-82
2023/04/28 12:47:43;;;;;;;11.23;7.85;;;12.80;99.90;;;;;;4844038;29;20495;-82
2023/04/28 12:50:09;;;;;;;10.27;7.75;;;12.70;99.90;;;;;;4844282;29;20101;-82